Time;durP1;ratioP1;P1;durP2;ratioP2;P2;SDS_P1;SDS_P2;PMS_P1;PMS_P2;Temp;Humidity;BMP_temperature;BMP_pressure;BME280_temperature;BME280_humidity;BME280_pressure;Samples;Min_cycle;Max_cycle;Signal;HPM_P1;HPM_P2
2022/11/06 00:00:13;;;;;;;15.52;13.93;;;;;;;8.40;79.78;99126.13;5062678;27;103242;-79
2022/11/06 00:02:41;;;;;;;14.45;12.98;;;;;;;8.30;81.20;99123.19;5065161;27;103486;-78
2022/11/06 00:07:57;;;;;;;15.07;13.57;;;;;;;8.35;79.40;99113.25;5044977;27;102913;-77
2022/11/06 00:10:25;;;;;;;13.50;12.10;;;;;;;8.41;80.04;99107.63;5046269;27;104297;-77
2022/11/06 00:12:52;;;;;;;14.93;13.45;;;;;;;8.43;79.93;99105.75;5045469;27;103481;-78
2022/11/06 00:15:20;;;;;;;14.02;12.63;;;;;;;8.49;79.60;99099.28;5061292;27;102888;-77
2022/11/06 00:17:50;;;;;;;15.65;13.98;;;;;;;8.24;80.63;99094.56;5062715;27;102820;-77
2022/11/06 00:20:20;;;;;;;13.48;12.18;;;;;;;8.38;81.44;99102.53;5062961;27;103280;-78
2022/11/06 00:22:48;;;;;;;14.70;12.98;;;;;;;8.30;81.59;99101.28;5064216;27;103218;-78
2022/11/06 00:25:17;;;;;;;13.73;12.32;;;;;;;8.38;81.26;99107.81;5062871;27;102804;-78
2022/11/06 00:27:46;;;;;;;11.25;10.15;;;;;;;8.56;80.67;99106.75;5065160;27;103746;-77
2022/11/06 00:30:14;;;;;;;13.45;12.05;;;;;;;8.61;80.16;99107.34;5062015;27;104227;-78
2022/11/06 00:32:41;;;;;;;13.05;11.68;;;;;;;8.55;79.96;99112.09;5064566;27;103239;-78
2022/11/06 00:35:09;;;;;;;13.75;12.40;;;;;;;8.46;80.00;99105.59;5064827;27;102678;-77
2022/11/06 00:37:37;;;;;;;13.82;12.43;;;;;;;8.46;79.77;99115.25;5064411;27;102767;-77
2022/11/06 00:40:06;;;;;;;15.32;13.82;;;;;;;7.96;80.11;99120.72;5064063;27;103962;-77
2022/11/06 00:42:35;;;;;;;13.25;12.05;;;;;;;8.21;80.82;99115.78;5062121;27;103329;-77
2022/11/06 00:45:04;;;;;;;13.03;11.73;;;;;;;8.22;80.94;99117.50;5061764;27;102943;-77
2022/11/06 00:47:31;;;;;;;13.77;12.43;;;;;;;8.27;80.19;99123.38;5066521;27;104086;-77
2022/11/06 00:49:59;;;;;;;11.43;10.23;;;;;;;8.38;80.36;99118.34;5062921;27;104086;-78
2022/11/06 00:52:29;;;;;;;10.13;9.18;;;;;;;8.51;80.25;99124.59;5064634;27;103476;-77
2022/11/06 00:54:57;;;;;;;10.23;9.33;;;;;;;8.57;79.69;99124.25;5061976;27;102995;-77
2022/11/06 00:57:24;;;;;;;14.03;12.63;;;;;;;8.15;78.42;99126.66;5060255;27;104638;-78
2022/11/06 00:59:53;;;;;;;14.53;13.03;;;;;;;7.76;81.60;99123.56;5063371;27;104473;-78
2022/11/06 01:02:21;;;;;;;12.85;11.55;;;;;;;7.98;81.22;99124.94;5063377;27;104524;-77
2022/11/06 01:04:49;;;;;;;13.85;12.38;;;;;;;7.86;81.06;99114.28;5064412;27;102651;-78
2022/11/06 01:07:17;;;;;;;14.70;13.30;;;;;;;7.81;81.43;99116.28;5066366;27;102639;-78
2022/11/06 01:09:45;;;;;;;15.43;13.93;;;;;;;7.66;82.45;99112.72;5062621;27;103869;-77
2022/11/06 01:12:13;;;;;;;12.43;11.32;;;;;;;7.86;81.89;99120.34;5040609;27;103201;-78
2022/11/06 01:14:42;;;;;;;12.73;11.53;;;;;;;7.96;81.59;99118.94;5065650;27;102591;-77
2022/11/06 01:17:12;;;;;;;11.47;10.23;;;;;;;8.15;81.59;99116.97;5063790;27;103003;-77
2022/11/06 01:19:40;;;;;;;11.35;10.25;;;;;;;8.23;81.30;99113.91;5063809;27;103182;-77
2022/11/06 01:22:08;;;;;;;11.53;10.33;;;;;;;8.35;81.04;99113.25;5057974;27;103429;-77
2022/11/06 01:24:35;;;;;;;12.68;11.43;;;;;;;8.22;79.53;99114.84;5063599;27;102607;-78
2022/11/06 01:27:04;;;;;;;10.90;9.97;;;;;;;8.20;80.37;99103.53;5063235;27;104017;-77
2022/11/06 01:29:51;;;;;;;12.75;11.55;;;;;;;8.07;80.36;99113.06;5044348;27;104249;-77
2022/11/06 01:32:21;;;;;;;12.50;10.75;;;;;;;8.11;80.65;99104.91;5043145;27;104124;-78
2022/11/06 01:34:49;;;;;;;12.07;10.88;;;;;;;7.94;80.74;99106.78;5043374;27;102618;-78
2022/11/06 01:37:17;;;;;;;14.48;12.98;;;;;;;7.29;81.05;99118.22;5044564;27;102753;-78
2022/11/06 01:39:45;;;;;;;12.50;11.20;;;;;;;7.61;82.84;99124.41;5062822;27;103853;-78
2022/11/06 01:42:14;;;;;;;13.75;12.35;;;;;;;7.46;82.37;99120.81;5062069;27;103286;-78
2022/11/06 01:45:20;;;;;;;13.35;11.95;;;;;;;7.55;82.52;99125.59;5060496;27;102498;-78
2022/11/06 01:47:49;;;;;;;14.50;13.00;;;;;;;7.39;84.05;99125.53;5063835;27;103899;-78
2022/11/06 01:50:18;;;;;;;12.50;11.25;;;;;;;7.65;82.96;99111.00;5063864;27;103432;-78
2022/11/06 01:52:48;;;;;;;10.77;9.77;;;;;;;7.94;82.46;99106.78;5059850;27;103270;-78
2022/11/06 01:55:19;;;;;;;11.95;10.85;;;;;;;8.01;81.54;99113.41;5046550;27;102880;-78
2022/11/06 01:57:48;;;;;;;10.40;9.37;;;;;;;8.07;81.23;99113.91;5062001;27;103524;-78
2022/11/06 02:00:18;;;;;;;13.67;12.20;;;;;;;7.77;79.14;99109.50;5060820;27;103042;-78
2022/11/06 02:02:47;;;;;;;12.80;11.50;;;;;;;7.74;81.66;99102.63;5040451;27;104567;-78
2022/11/06 02:05:17;;;;;;;11.90;10.77;;;;;;;7.80;81.62;99104.06;5062854;27;102670;-78
2022/11/06 02:07:45;;;;;;;12.38;11.18;;;;;;;7.33;83.78;99110.09;5062546;27;104030;-78
2022/11/06 02:10:13;;;;;;;11.95;10.82;;;;;;;7.44;83.45;99106.88;5063327;27;103233;-77
2022/11/06 02:12:54;;;;;;;12.80;11.57;;;;;;;7.46;83.22;99113.78;5062054;27;103159;-78
2022/11/06 02:15:34;;;;;;;11.57;10.38;;;;;;;7.54;82.97;99102.84;5059222;27;102661;-79
2022/11/06 02:18:29;;;;;;;11.73;10.52;;;;;;;7.62;81.95;99097.16;5066104;27;102979;-78
2022/11/06 02:21:29;;;;;;;13.80;12.32;;;;;;;7.17;81.94;99100.47;5060329;27;103289;-77
2022/11/06 02:24:19;;;;;;;14.15;12.75;;;;;;;7.06;83.57;99101.03;5062450;27;103296;-78
2022/11/06 02:26:56;;;;;;;12.67;11.47;;;;;;;7.02;84.75;99107.34;5042073;27;102680;-78
2022/11/06 02:29:31;;;;;;;14.25;12.80;;;;;;;6.33;86.81;99086.34;5063857;27;102675;-78
2022/11/06 02:32:04;;;;;;;14.00;12.60;;;;;;;6.63;85.99;99075.22;5058154;27;104151;-78
2022/11/06 02:34:35;;;;;;;11.27;10.17;;;;;;;7.01;84.52;99087.28;5063612;27;103229;-78
2022/11/06 02:37:07;;;;;;;9.73;8.83;;;;;;;7.37;83.80;99085.34;5044277;27;102914;-78
2022/11/06 02:39:38;;;;;;;12.68;11.38;;;;;;;7.10;83.53;99076.31;5043293;27;104778;-78
2022/11/06 02:42:12;;;;;;;13.40;12.07;;;;;;;7.20;82.77;99072.25;5061786;27;103257;-78
2022/11/06 02:44:42;;;;;;;10.63;9.57;;;;;;;7.42;81.95;99067.53;5064986;27;103005;-78
2022/11/06 02:47:13;;;;;;;12.40;11.13;;;;;;;7.42;81.16;99057.03;5059629;27;102585;-78
2022/11/06 02:49:45;;;;;;;11.40;10.32;;;;;;;7.56;81.24;99051.88;5062610;27;103241;-78
2022/11/06 02:52:20;;;;;;;11.13;10.02;;;;;;;7.68;81.29;99046.88;5059371;27;104356;-78
2022/11/06 02:54:54;;;;;;;11.93;10.73;;;;;;;7.70;80.62;99034.47;5059979;27;103478;-78
2022/11/06 02:57:27;;;;;;;11.00;9.83;;;;;;;7.64;81.32;99034.81;5058599;27;102882;-78
2022/11/06 03:00:01;;;;;;;23.97;12.23;;;;;;;7.45;81.96;99037.59;5044446;27;102756;-78
2022/11/06 03:02:33;;;;;;;21.45;12.63;;;;;;;7.50;82.80;99033.78;5055118;27;103796;-78
2022/11/06 03:05:06;;;;;;;19.97;11.63;;;;;;;7.42;82.64;99028.09;5060205;27;103328;-79
2022/11/06 03:07:37;;;;;;;35.73;13.33;;;;;;;7.38;83.00;99023.94;5063077;27;102820;-78
2022/11/06 03:10:07;;;;;;;22.98;13.00;;;;;;;7.39;83.79;99030.06;5040683;27;104420;-78
2022/11/06 03:12:48;;;;;;;30.98;14.40;;;;;;;7.24;83.91;99021.19;5060259;27;103875;-78
2022/11/06 03:15:24;;;;;;;13.50;11.30;;;;;;;7.64;83.95;99013.78;5054567;27;102764;-77
2022/11/06 03:18:00;;;;;;;23.70;14.15;;;;;;;7.43;84.28;99027.19;5058631;27;102810;-78
2022/11/06 03:20:35;;;;;;;15.60;11.95;;;;;;;7.57;83.89;99015.91;5041093;27;102983;-77
2022/11/06 03:23:13;;;;;;;16.02;12.63;;;;;;;7.32;84.79;99013.78;5061643;27;104119;-78
2022/11/06 03:25:46;;;;;;;22.63;12.75;;;;;;;7.28;85.49;99014.88;5060260;27;103452;-78
2022/11/06 03:28:23;;;;;;;14.25;12.85;;;;;;;7.16;85.44;99015.50;5064318;27;103071;-78
2022/11/06 03:30:56;;;;;;;24.50;13.90;;;;;;;7.11;84.24;99017.53;5042810;27;102659;-78
2022/11/06 03:33:32;;;;;;;15.07;13.52;;;;;;;6.97;86.62;99023.53;5062108;27;103692;-78
2022/11/06 03:36:03;;;;;;;15.20;13.60;;;;;;;6.79;87.50;99018.41;5060488;27;103245;-78
2022/11/06 03:38:33;;;;;;;13.23;11.93;;;;;;;6.96;87.94;99026.25;5062851;27;102538;-78
2022/11/06 03:41:13;;;;;;;13.23;11.93;;;;;;;7.03;86.76;99006.59;5062087;27;102704;-78
2022/11/06 03:43:45;;;;;;;12.77;11.48;;;;;;;6.86;86.50;99009.25;5061331;27;102536;-78
2022/11/06 03:46:18;;;;;;;12.82;11.52;;;;;;;6.80;86.61;99009.56;5061116;27;103243;-78
2022/11/06 03:48:50;;;;;;;11.10;10.00;;;;;;;6.71;86.25;99004.81;5062856;27;102773;-77
2022/11/06 03:51:22;;;;;;;10.98;9.90;;;;;;;6.71;86.06;98999.56;5062154;27;103836;-78
2022/11/06 03:53:53;;;;;;;10.85;9.85;;;;;;;6.67;85.46;98993.63;5059235;27;103273;-78
2022/11/06 03:56:25;;;;;;;11.45;10.15;;;;;;;6.24;86.63;99000.19;5058903;27;103286;-78
2022/11/06 03:58:57;;;;;;;10.25;9.25;;;;;;;6.54;86.85;98994.34;5043218;27;102672;-78
2022/11/06 04:01:28;;;;;;;10.00;9.07;;;;;;;6.80;85.11;99009.56;5061680;27;103572;-78
2022/11/06 04:04:01;;;;;;;10.90;9.80;;;;;;;6.56;84.92;99006.47;5059880;27;104508;-78
2022/11/06 04:06:35;;;;;;;9.57;8.57;;;;;;;6.80;84.77;99001.69;5062870;27;103291;-78
2022/11/06 04:14:42;;;;;;;10.90;9.80;;;;;;;6.20;86.37;98990.78;5063641;27;103253;-78
2022/11/06 04:17:12;;;;;;;10.55;9.38;;;;;;;6.03;88.40;98984.69;5064057;27;102616;-78
2022/11/06 04:19:45;;;;;;;9.82;8.93;;;;;;;6.55;86.80;98982.91;5063841;27;103358;-78
2022/11/06 04:22:31;;;;;;;9.32;8.52;;;;;;;6.77;85.96;98975.59;5047025;27;102723;-77
2022/11/06 04:28:07;;;;;;;12.10;9.45;;;;;;;6.67;84.30;98982.28;5066452;27;103251;-78
2022/11/06 04:30:44;;;;;;;10.30;9.30;;;;;;;6.37;86.97;98969.78;5064473;27;103281;-78
2022/11/06 04:33:22;;;;;;;11.05;9.73;;;;;;;6.27;87.20;98970.34;5064766;27;102787;-77
2022/11/06 04:36:00;;;;;;;12.73;9.97;;;;;;;6.57;85.83;98965.31;5062071;27;103999;-78
2022/11/06 04:38:38;;;;;;;9.80;8.90;;;;;;;6.71;85.74;98973.31;5064592;27;103047;-77
2022/11/06 04:41:15;;;;;;;8.45;7.65;;;;;;;7.04;84.45;98960.16;5062442;27;102788;-78
2022/11/06 04:43:48;;;;;;;9.23;8.38;;;;;;;7.15;83.10;98948.16;5060923;27;103883;-77
2022/11/06 04:46:22;;;;;;;10.23;9.32;;;;;;;7.05;82.19;98952.19;5059824;27;103401;-78
2022/11/06 04:48:50;;;;;;;8.45;7.65;;;;;;;7.19;82.66;98944.41;5059199;27;103288;-78
2022/11/06 04:51:21;;;;;;;8.88;8.07;;;;;;;7.28;82.14;98946.53;5067044;27;102782;-78
2022/11/06 04:53:51;;;;;;;9.50;8.53;;;;;;;6.85;82.61;98939.28;5060757;27;104013;-77
2022/11/06 04:56:23;;;;;;;10.20;9.20;;;;;;;6.33;85.33;98941.16;5060724;27;103260;-78
2022/11/06 04:58:52;;;;;;;10.05;8.95;;;;;;;6.46;85.54;98936.16;5042341;27;103378;-78
2022/11/06 05:01:21;;;;;;;10.02;9.02;;;;;;;6.57;84.60;98918.88;5042109;27;104747;-78
2022/11/06 05:03:49;;;;;;;9.95;9.00;;;;;;;6.19;86.18;98923.50;5062738;27;103855;-78
2022/11/06 05:06:17;;;;;;;9.10;8.25;;;;;;;6.54;85.51;98924.28;5041045;27;103607;-77
2022/11/06 05:08:45;;;;;;;10.47;9.47;;;;;;;6.71;84.35;98947.06;5064053;27;103955;-77
2022/11/06 05:11:13;;;;;;;9.43;8.50;;;;;;;6.89;83.54;98946.94;5045393;27;102771;-77
2022/11/06 05:13:43;;;;;;;9.60;8.60;;;;;;;6.99;82.63;98955.13;5060362;27;102751;-78
2022/11/06 05:16:13;;;;;;;9.47;8.47;;;;;;;6.89;82.08;98961.81;5060757;27;104069;-78
2022/11/06 05:18:42;;;;;;;9.60;8.70;;;;;;;6.70;82.89;98964.59;5061877;27;103379;-78
2022/11/06 05:23:56;;;;;;;9.75;8.85;;;;;;;6.67;84.22;98958.63;5063076;27;102832;-78
2022/11/06 05:26:24;;;;;;;9.63;8.63;;;;;;;6.92;83.23;98959.03;5058914;27;103749;-78
2022/11/06 05:28:52;;;;;;;8.77;7.97;;;;;;;7.13;82.24;98960.50;5061740;27;103929;-78
2022/11/06 05:31:19;;;;;;;9.20;8.40;;;;;;;7.11;81.47;98965.00;5061531;27;102691;-78
2022/11/06 05:33:48;;;;;;;8.48;7.72;;;;;;;7.08;81.85;98967.78;5061675;27;103910;-78
2022/11/06 05:36:16;;;;;;;8.13;7.38;;;;;;;7.21;81.69;98968.00;5063167;27;104564;-78
2022/11/06 05:38:44;;;;;;;13.05;8.65;;;;;;;6.96;81.61;98978.97;5060219;27;102962;-78
2022/11/06 05:41:12;;;;;;;12.35;8.50;;;;;;;7.03;81.39;98969.81;5061772;27;102641;-77
2022/11/06 05:43:39;;;;;;;10.77;9.68;;;;;;;6.83;82.06;98959.53;5059941;27;102741;-78
2022/11/06 05:46:07;;;;;;;9.52;8.63;;;;;;;7.05;81.15;98952.19;5059845;27;104160;-77
2022/11/06 05:48:56;;;;;;;8.30;7.50;;;;;;;7.31;80.83;98949.00;5060986;27;103380;-78
2022/11/06 05:51:26;;;;;;;7.80;7.07;;;;;;;7.28;80.17;98954.41;5059789;27;102619;-78
2022/11/06 05:53:55;;;;;;;8.30;7.50;;;;;;;7.42;79.89;98951.03;5059785;27;102685;-77
2022/11/06 05:56:24;;;;;;;7.10;6.50;;;;;;;7.47;79.51;98936.69;5061386;27;103351;-75
2022/11/06 05:58:51;;;;;;;12.77;8.07;;;;;;;7.12;79.71;98943.06;5059125;27;103308;-75
2022/11/06 06:01:19;;;;;;;9.53;7.87;;;;;;;7.07;79.42;98946.88;5060283;27;102915;-75
2022/11/06 06:03:47;;;;;;;18.17;8.10;;;;;;;7.13;79.63;98962.31;5057189;27;104031;-74
2022/11/06 06:06:16;;;;;;;9.97;7.73;;;;;;;7.23;79.14;98956.47;5060464;27;103983;-74
2022/11/06 06:08:44;;;;;;;8.45;7.65;;;;;;;7.28;79.52;98954.41;5058215;27;102672;-74
2022/11/06 06:11:12;;;;;;;8.75;7.95;;;;;;;7.13;80.15;98960.50;5059969;27;103164;-74
2022/11/06 06:13:40;;;;;;;8.98;8.07;;;;;;;7.06;80.24;98964.41;5058558;27;102893;-75
2022/11/06 06:16:08;;;;;;;12.90;8.43;;;;;;;6.89;80.53;98954.81;5054863;27;104169;-75
2022/11/06 06:18:35;;;;;;;8.33;7.53;;;;;;;7.11;80.27;98962.38;5059693;27;103247;-74
2022/11/06 06:21:04;;;;;;;7.77;7.07;;;;;;;7.18;79.71;98974.25;5062073;27;102804;-74
2022/11/06 06:23:33;;;;;;;9.48;8.13;;;;;;;6.88;79.90;98963.59;5048074;27;103010;-74
2022/11/06 06:26:01;;;;;;;7.53;6.82;;;;;;;7.16;80.70;98949.81;5062377;27;103341;-73
2022/11/06 06:28:28;;;;;;;8.60;7.80;;;;;;;7.29;79.58;98966.63;5063948;27;103333;-74
2022/11/06 06:30:56;;;;;;;6.97;6.38;;;;;;;7.35;79.63;98958.41;5060601;27;102715;-76
2022/11/06 06:33:28;;;;;;;7.25;6.65;;;;;;;7.43;79.54;98947.47;5062102;27;103562;-75
2022/11/06 06:35:58;;;;;;;13.60;7.83;;;;;;;7.19;78.68;98943.56;5062528;27;104438;-75
2022/11/06 06:38:26;;;;;;;7.07;6.38;;;;;;;7.18;79.78;98937.47;5060796;27;103223;-75
2022/11/06 06:40:55;;;;;;;8.95;8.05;;;;;;;7.18;79.93;98937.47;5059789;27;102887;-75
2022/11/06 06:43:23;;;;;;;8.10;7.30;;;;;;;7.28;79.17;98940.44;5056539;27;102575;-75
2022/11/06 06:45:51;;;;;;;6.70;6.15;;;;;;;7.37;79.44;98943.41;5060613;27;103059;-74
2022/11/06 06:48:19;;;;;;;7.95;7.22;;;;;;;7.08;79.24;98951.16;5037077;27;103965;-75
2022/11/06 06:50:47;;;;;;;8.88;8.00;;;;;;;6.92;80.46;98951.16;5058981;27;102953;-73
2022/11/06 06:53:15;;;;;;;9.15;8.25;;;;;;;6.87;80.85;98940.06;5059925;27;102897;-75
2022/11/06 06:55:42;;;;;;;8.57;7.68;;;;;;;7.02;79.90;98927.88;5060185;27;104026;-74
2022/11/06 06:58:11;;;;;;;7.70;7.00;;;;;;;7.16;80.00;98923.53;5056944;27;103343;-77
2022/11/06 07:00:44;;;;;;;7.05;6.45;;;;;;;7.41;79.00;98923.88;5056481;27;102751;-77
2022/11/06 07:03:13;;;;;;;8.73;7.88;;;;;;;6.79;79.00;98918.63;5060150;27;103944;-75
2022/11/06 07:05:40;;;;;;;8.90;8.07;;;;;;;6.70;79.89;98924.34;5058191;27;103728;-76
2022/11/06 07:08:08;;;;;;;8.37;7.53;;;;;;;6.66;81.82;98913.16;5059207;27;103378;-75
2022/11/06 07:10:36;;;;;;;7.97;7.28;;;;;;;6.72;81.68;98915.47;5057353;27;102730;-76
2022/11/06 07:13:05;;;;;;;7.85;7.15;;;;;;;6.79;81.64;98908.94;5049409;27;102870;-75
2022/11/06 07:15:34;;;;;;;8.63;7.80;;;;;;;6.53;82.10;98906.00;5057636;27;103279;-76
2022/11/06 07:18:02;;;;;;;7.90;7.20;;;;;;;7.04;79.09;98897.13;5058400;27;103032;-75
2022/11/06 07:20:30;;;;;;;6.70;6.10;;;;;;;7.62;80.30;98889.44;5040266;27;102634;-74
2022/11/06 07:22:59;;;;;;;7.57;6.95;;;;;;;7.51;78.23;98877.75;5062850;27;104308;-74
2022/11/06 07:25:27;;;;;;;7.87;7.07;;;;;;;6.82;78.33;98871.19;5036769;27;103208;-74
2022/11/06 07:27:55;;;;;;;7.70;7.00;;;;;;;7.66;80.01;98876.03;5051500;27;103270;-74
2022/11/06 07:30:29;;;;;;;6.95;6.35;;;;;;;8.14;78.51;98870.50;5038106;27;102748;-73
2022/11/06 07:33:01;;;;;;;6.75;6.15;;;;;;;8.40;76.19;98863.72;5040239;27;104692;-74
2022/11/06 07:35:30;;;;;;;7.65;6.95;;;;;;;7.56;78.35;98865.19;5059113;27;103131;-74
2022/11/06 07:37:57;;;;;;;7.57;6.88;;;;;;;7.77;77.69;98871.00;5054954;27;103274;-75
2022/11/06 07:40:25;;;;;;;7.68;6.97;;;;;;;8.07;77.90;98861.31;5044052;27;102862;-74
2022/11/06 07:42:53;;;;;;;7.03;6.32;;;;;;;8.36;77.64;98856.09;5059855;27;102904;-75
2022/11/06 07:45:21;;;;;;;6.97;6.28;;;;;;;8.50;75.83;98838.53;5058307;27;103931;-75
2022/11/06 07:47:48;;;;;;;8.10;7.30;;;;;;;8.09;77.37;98837.50;5058766;27;103477;-76
2022/11/06 07:50:21;;;;;;;7.28;6.60;;;;;;;8.22;78.57;98832.38;5056027;27;102775;-76
2022/11/06 07:52:49;;;;;;;8.35;7.35;;;;;;;8.08;77.80;98835.84;5045737;27;104033;-76
2022/11/06 07:55:17;;;;;;;7.60;6.90;;;;;;;7.82;78.31;98828.63;5041909;27;103864;-75
2022/11/06 07:57:47;;;;;;;7.70;7.00;;;;;;;8.07;77.67;98823.59;5047158;27;104151;-75
2022/11/06 08:00:15;;;;;;;7.05;6.40;;;;;;;8.17;78.30;98817.69;5039509;27;102779;-76
2022/11/06 08:02:51;;;;;;;7.90;7.20;;;;;;;8.31;77.82;98806.34;5061499;27;103342;-76
2022/11/06 08:05:21;;;;;;;7.80;7.10;;;;;;;8.26;77.99;98797.84;5060053;27;103332;-76
2022/11/06 08:07:49;;;;;;;6.30;5.80;;;;;;;9.35;74.04;98800.59;5044276;27;103212;-76
2022/11/06 08:10:17;;;;;;;6.80;6.20;;;;;;;9.24;72.11;98788.94;5061503;27;103029;-76
2022/11/06 08:12:45;;;;;;;6.60;6.00;;;;;;;8.24;74.56;98793.63;5061983;27;102903;-76
2022/11/06 08:15:14;;;;;;;6.93;6.20;;;;;;;8.34;75.52;98790.38;5054465;27;104062;-76
2022/11/06 08:17:42;;;;;;;6.60;6.00;;;;;;;8.44;74.97;98786.25;5061853;27;103206;-76
2022/11/06 08:20:11;;;;;;;6.57;6.03;;;;;;;8.54;74.95;98784.72;5045353;27;103853;-76
2022/11/06 08:22:40;;;;;;;6.85;6.15;;;;;;;8.74;73.09;98784.31;5063594;27;103590;-76
2022/11/06 08:25:09;;;;;;;7.32;6.63;;;;;;;9.27;71.10;98780.84;5059085;27;104096;-76
2022/11/06 08:27:37;;;;;;;6.55;5.95;;;;;;;9.50;71.05;98779.31;5045714;27;104171;-76
2022/11/06 08:30:07;;;;;;;5.75;5.25;;;;;;;9.85;70.73;98774.31;5058589;27;102771;-76
2022/11/06 08:32:35;;;;;;;6.43;5.82;;;;;;;9.79;71.03;98783.50;5059277;27;104247;-76
2022/11/06 08:35:03;;;;;;;5.95;5.32;;;;;;;10.16;70.08;98784.47;5050525;27;104169;-76
2022/11/06 08:37:34;;;;;;;6.32;5.72;;;;;;;10.44;69.99;98783.41;5042646;27;103329;-76
2022/11/06 08:40:03;;;;;;;6.80;6.20;;;;;;;9.84;69.79;98791.94;5061196;27;102900;-76
2022/11/06 08:42:31;;;;;;;6.82;6.22;;;;;;;10.75;68.29;98782.91;5060028;27;103941;-76
2022/11/06 08:44:59;;;;;;;7.18;6.50;;;;;;;10.60;69.12;98786.66;5062136;27;104379;-76
2022/11/06 08:47:27;;;;;;;6.90;6.30;;;;;;;10.70;68.17;98785.03;5041413;27;107182;-75
2022/11/06 08:49:55;;;;;;;5.97;5.40;;;;;;;11.73;66.49;98777.44;5042663;27;102949;-76
2022/11/06 08:52:23;;;;;;;6.97;6.38;;;;;;;11.44;65.75;98765.50;5063151;27;103185;-76
2022/11/06 08:54:55;;;;;;;7.13;6.43;;;;;;;11.59;65.44;98759.06;5059175;27;103949;-76
2022/11/06 08:57:24;;;;;;;7.33;6.50;;;;;;;11.53;66.24;98759.53;5060750;27;103216;-76
2022/11/06 08:59:52;;;;;;;7.70;6.90;;;;;;;10.85;68.59;98762.81;5061537;27;102978;-76
2022/11/06 09:02:22;;;;;;;7.32;6.65;;;;;;;11.48;67.17;98757.22;5058939;27;102765;-75
2022/11/06 09:04:50;;;;;;;7.73;6.90;;;;;;;10.89;68.67;98758.97;5042647;27;103468;-75
2022/11/06 09:07:18;;;;;;;6.85;6.25;;;;;;;11.70;67.37;98760.94;5060709;27;103311;-76
2022/11/06 09:09:46;;;;;;;7.15;6.45;;;;;;;11.25;67.73;98759.88;5058988;27;102643;-75
2022/11/06 09:12:13;;;;;;;7.10;6.40;;;;;;;11.79;66.30;98761.06;5058285;27;102901;-76
2022/11/06 09:14:42;;;;;;;7.05;6.45;;;;;;;11.22;67.94;98760.13;5058861;27;103361;-76
2022/11/06 09:17:12;;;;;;;6.85;6.25;;;;;;;11.56;66.83;98759.31;5059029;27;103273;-76
2022/11/06 09:19:40;;;;;;;7.60;6.82;;;;;;;11.42;66.89;98756.84;5042243;27;102766;-76
2022/11/06 09:22:10;;;;;;;7.18;6.47;;;;;;;11.91;66.36;98762.78;5062376;27;102676;-76
2022/11/06 09:24:38;;;;;;;8.20;7.40;;;;;;;11.83;66.53;98777.56;5059706;27;103575;-76
2022/11/06 09:27:25;;;;;;;8.50;7.70;;;;;;;12.10;63.86;98792.16;5060976;27;103251;-75
2022/11/06 09:29:54;;;;;;;7.68;6.97;;;;;;;11.24;67.90;98805.78;5060616;27;102957;-76
2022/11/06 09:32:25;;;;;;;6.93;6.28;;;;;;;11.86;66.28;98799.34;5037834;27;104168;-75
2022/11/06 09:34:52;;;;;;;7.45;6.75;;;;;;;12.04;67.02;98787.34;5062644;27;103976;-75
2022/11/06 09:37:20;;;;;;;6.63;6.03;;;;;;;12.56;64.25;98784.13;5042967;27;102657;-76
2022/11/06 09:39:48;;;;;;;7.10;6.40;;;;;;;12.68;64.92;98767.28;5061119;27;102820;-75
2022/11/06 09:42:27;;;;;;;6.97;6.38;;;;;;;12.72;64.21;98762.53;5059346;27;104024;-74
2022/11/06 09:45:03;;;;;;;8.23;7.43;;;;;;;12.20;66.18;98757.88;5060534;27;103381;-75
2022/11/06 09:47:38;;;;;;;7.28;6.57;;;;;;;12.32;63.20;98764.03;5060054;27;103219;-74
2022/11/06 09:50:14;;;;;;;6.57;5.97;;;;;;;11.90;63.78;98763.72;5060608;27;102765;-74
2022/11/06 09:52:47;;;;;;;5.75;5.25;;;;;;;13.17;63.19;98748.25;5063093;27;103138;-74
2022/11/06 09:55:20;;;;;;;7.47;6.68;;;;;;;13.18;61.11;98735.84;5059411;27;103247;-74
2022/11/06 09:57:52;;;;;;;7.50;6.80;;;;;;;12.52;64.34;98734.97;5059377;27;103533;-74
2022/11/06 10:00:21;;;;;;;7.00;6.40;;;;;;;12.50;62.90;98728.13;5061091;27;102947;-73
2022/11/06 10:02:51;;;;;;;7.10;6.50;;;;;;;12.92;62.78;98727.31;5057498;27;102959;-74
2022/11/06 10:05:26;;;;;;;7.65;6.95;;;;;;;12.06;66.01;98716.59;5058377;27;104370;-73
2022/11/06 10:07:56;;;;;;;6.90;6.30;;;;;;;12.72;64.48;98706.88;5057472;27;103210;-74
2022/11/06 10:10:30;;;;;;;7.97;6.68;;;;;;;13.05;64.43;98711.28;5053262;27;102688;-74
2022/11/06 10:13:15;;;;;;;7.43;6.77;;;;;;;12.91;64.09;98711.56;5040351;27;103106;-71
2022/11/06 10:15:54;;;;;;;7.70;6.95;;;;;;;13.02;65.00;98712.38;5038325;27;104334;-76
2022/11/06 10:18:34;;;;;;;7.40;6.70;;;;;;;13.00;63.31;98708.13;5061491;27;103231;-76
2022/11/06 10:21:09;;;;;;;7.70;7.00;;;;;;;12.87;63.67;98702.16;5064053;27;102764;-74
2022/11/06 10:23:45;;;;;;;7.83;7.07;;;;;;;12.85;64.19;98697.00;5056223;27;102972;-76
2022/11/06 10:26:16;;;;;;;7.82;7.13;;;;;;;12.73;63.82;98690.88;5054798;27;103539;-76
2022/11/06 10:28:59;;;;;;;7.72;6.55;;;;;;;13.13;62.16;98675.22;5042475;27;103500;-76
2022/11/06 10:31:37;;;;;;;6.83;6.00;;;;;;;13.82;60.21;98664.91;5057676;27;102843;-76
2022/11/06 10:34:09;;;;;;;6.87;6.27;;;;;;;13.50;61.23;98669.47;5056649;27;102966;-76
2022/11/06 10:36:42;;;;;;;6.80;6.10;;;;;;;13.53;60.45;98655.97;5056174;27;104001;-76
2022/11/06 10:39:19;;;;;;;6.80;6.18;;;;;;;13.76;60.57;98649.50;5057532;27;102988;-77
2022/11/06 10:41:52;;;;;;;6.05;5.55;;;;;;;13.31;62.57;98641.84;5058018;27;102668;-76
2022/11/06 10:44:24;;;;;;;6.43;5.82;;;;;;;13.55;60.48;98651.34;5060564;27;102855;-76
2022/11/06 10:46:56;;;;;;;6.60;5.90;;;;;;;13.44;60.89;98643.47;5058503;27;103363;-79
2022/11/06 10:49:34;;;;;;;6.47;5.88;;;;;;;13.10;61.40;98630.38;5055640;27;103220;-76
2022/11/06 10:52:26;;;;;;;6.70;6.10;;;;;;;12.88;63.43;98626.97;5055644;27;102967;-75
2022/11/06 10:55:11;;;;;;;6.70;6.10;;;;;;;13.18;62.87;98625.28;5038040;27;103628;-76
2022/11/06 10:57:45;;;;;;;7.20;6.50;;;;;;;12.94;63.28;98619.31;5057275;27;103922;-77
2022/11/06 11:00:15;;;;;;;6.65;6.05;;;;;;;13.25;63.42;98607.84;5054878;27;103281;-77
2022/11/06 11:02:48;;;;;;;6.87;6.27;;;;;;;13.65;62.28;98607.97;5056601;27;103549;-77
2022/11/06 11:05:18;;;;;;;7.53;6.82;;;;;;;13.31;62.00;98595.88;5056154;27;104152;-75
2022/11/06 11:07:48;;;;;;;6.87;6.27;;;;;;;13.32;62.47;98586.97;5058063;27;104293;-76
2022/11/06 11:10:28;;;;;;;7.25;6.55;;;;;;;13.21;63.91;98576.44;5037914;27;104460;-76
2022/11/06 11:12:59;;;;;;;7.18;6.47;;;;;;;13.01;64.84;98570.13;5061735;27;102643;-76
2022/11/06 11:15:43;;;;;;;7.00;6.38;;;;;;;13.24;63.48;98555.78;5061935;27;104053;-77
2022/11/06 11:18:18;;;;;;;6.72;6.13;;;;;;;12.91;64.95;98542.72;5060178;27;104036;-74
2022/11/06 11:20:49;;;;;;;7.00;6.35;;;;;;;12.64;66.36;98542.34;5054999;27;103238;-75
2022/11/06 11:23:20;;;;;;;6.53;5.93;;;;;;;13.32;64.26;98526.78;5056989;27;102683;-76
2022/11/06 11:25:50;;;;;;;6.33;5.73;;;;;;;13.56;63.49;98523.81;5063733;27;104685;-76
2022/11/06 11:28:26;;;;;;;5.87;5.33;;;;;;;13.26;63.28;98519.34;5059449;27;104331;-76
2022/11/06 11:31:06;;;;;;;5.20;4.80;;;;;;;13.12;62.17;98514.38;5038216;27;104642;-75
2022/11/06 11:33:36;;;;;;;5.40;4.90;;;;;;;13.38;61.66;98514.81;5058899;27;104160;-75
2022/11/06 11:36:06;;;;;;;4.97;4.57;;;;;;;13.39;61.85;98513.81;5062461;27;103738;-74
2022/11/06 11:38:36;;;;;;;5.28;4.85;;;;;;;13.68;60.23;98508.63;5062503;27;104215;-76
2022/11/06 11:41:10;;;;;;;4.28;3.88;;;;;;;13.89;59.31;98501.44;5055568;27;103235;-75
2022/11/06 11:43:39;;;;;;;5.35;4.85;;;;;;;13.68;59.58;98508.63;5043312;27;103007;-77
2022/11/06 11:46:21;;;;;;;5.25;4.75;;;;;;;13.89;59.98;98490.81;5045002;27;104361;-76
2022/11/06 11:48:52;;;;;;;5.00;4.50;;;;;;;14.11;60.19;98487.06;5057804;27;104150;-75
2022/11/06 11:51:30;;;;;;;4.50;4.10;;;;;;;14.82;58.11;98475.22;5039393;27;103249;-76
2022/11/06 11:54:04;;;;;;;5.20;4.70;;;;;;;14.54;58.80;98466.25;5061478;27;104129;-76
2022/11/06 11:56:32;;;;;;;5.03;4.53;;;;;;;15.06;56.19;98459.59;5056913;27;102717;-77